Anderson, South Dakota
Current Conditions -  °F | °C
As of 8:00 AM on Wednesday 26 Nov 2014 (Local Time) from KHEI Reporting Station
Haze Haze  
Wind Chill: -11°   Ceiling: 900
Heat Index: -6°   Visibility: 6mi
Dew Point: -8°   Wind: 7mph
Humidity: 88%   Direction: 190°S
Pressure: 30.22"   Gusts: NA
Location:  45.2919°N, 102.298°W
Report Text: KHEI 261500Z AUTO 19006KT 6SM BR OVC009 M06/M08 A3022 RMK AO2 T10611078
Loading
Personal Weather Stations






























Interactive Weather Map New forecast layout! Learn more

10-Day Weather Forecast

Advertisements
Track Severe Weather on mobile